createdAt,value
2018-03-21T00:00:06.729Z,86.10
2018-03-21T00:01:06.333Z,86.10
2018-03-21T00:02:06.153Z,86.10
2018-03-21T00:03:13.848Z,86.10
2018-03-21T00:04:09.043Z,86.10
2018-03-21T00:05:08.124Z,86.00
2018-03-21T00:06:09.181Z,85.90
2018-03-21T00:07:09.076Z,85.90
2018-03-21T00:08:05.618Z,85.90
2018-03-21T00:09:05.752Z,85.90
2018-03-21T00:10:07.995Z,85.90
2018-03-21T00:11:11.430Z,85.90
2018-03-21T00:12:11.068Z,86.00
2018-03-21T00:13:05.804Z,85.90
2018-03-21T00:14:09.021Z,85.80
2018-03-21T00:15:05.558Z,85.90
2018-03-21T00:16:10.495Z,85.80
2018-03-21T00:17:05.790Z,85.80
2018-03-21T00:18:05.944Z,85.80
2018-03-21T00:19:06.587Z,85.80
2018-03-21T00:20:06.274Z,85.80
2018-03-21T00:21:11.197Z,85.70
2018-03-21T00:22:06.466Z,85.70
2018-03-21T00:23:06.630Z,85.60
2018-03-21T00:24:06.536Z,85.60
2018-03-21T00:25:06.057Z,85.50
2018-03-21T00:26:06.040Z,85.50
2018-03-21T00:27:06.396Z,85.50
2018-03-21T00:28:08.391Z,85.60
2018-03-21T00:29:06.198Z,85.60
2018-03-21T00:30:06.254Z,85.60
2018-03-21T00:31:11.667Z,85.60
2018-03-21T00:32:06.173Z,85.60
2018-03-21T00:33:11.073Z,85.60
2018-03-21T00:34:08.042Z,85.60
2018-03-21T00:35:05.445Z,85.50
2018-03-21T00:36:08.466Z,85.50
2018-03-21T00:37:05.888Z,85.30
2018-03-21T00:38:06.403Z,85.30
2018-03-21T00:39:10.995Z,85.10
2018-03-21T00:40:06.204Z,85.00
2018-03-21T00:41:08.337Z,84.90
2018-03-21T00:42:06.186Z,84.80
2018-03-21T00:43:05.768Z,84.80
2018-03-21T00:44:06.216Z,84.80
2018-03-21T00:45:05.917Z,84.70
2018-03-21T00:46:06.117Z,84.70
2018-03-21T00:47:06.204Z,84.80
2018-03-21T00:48:05.841Z,84.70
2018-03-21T00:49:09.975Z,84.70
2018-03-21T00:50:06.757Z,84.80
2018-03-21T00:51:06.610Z,84.80
2018-03-21T00:52:06.593Z,84.80
2018-03-21T00:53:09.281Z,84.70
2018-03-21T00:54:05.730Z,84.70
2018-03-21T00:55:08.512Z,84.70
2018-03-21T00:56:10.673Z,84.60
2018-03-21T00:57:09.314Z,84.50
2018-03-21T00:58:10.827Z,84.40
2018-03-21T00:59:06.501Z,84.40
2018-03-21T01:00:06.299Z,84.30
2018-03-21T01:01:05.896Z,84.40
2018-03-21T01:02:06.288Z,84.30
2018-03-21T01:03:09.650Z,84.20
2018-03-21T01:04:09.526Z,84.20
2018-03-21T01:05:11.155Z,84.20
2018-03-21T01:06:09.437Z,84.10
2018-03-21T01:07:05.972Z,84.10
2018-03-21T01:08:11.379Z,84.10
2018-03-21T01:09:10.477Z,84.00
2018-03-21T01:10:06.362Z,83.80
2018-03-21T01:11:05.893Z,83.70
2018-03-21T01:12:06.603Z,83.80
2018-03-21T01:13:06.714Z,83.80
2018-03-21T01:14:06.374Z,83.80
2018-03-21T01:15:07.468Z,83.70
2018-03-21T01:16:08.709Z,83.70
2018-03-21T01:17:06.295Z,83.70
2018-03-21T01:18:06.446Z,83.70
2018-03-21T01:19:10.997Z,83.60
2018-03-21T01:20:08.921Z,83.80
2018-03-21T01:21:09.295Z,83.80
2018-03-21T01:22:08.415Z,83.80
2018-03-21T01:23:05.879Z,83.80
2018-03-21T01:24:05.918Z,83.70
2018-03-21T01:25:07.008Z,83.60
2018-03-21T01:26:05.763Z,83.60
2018-03-21T01:27:09.288Z,83.50
2018-03-21T01:28:06.048Z,83.50
2018-03-21T01:29:06.144Z,83.40
2018-03-21T01:30:08.553Z,83.30
2018-03-21T01:31:08.561Z,83.40
2018-03-21T01:32:06.349Z,83.40
2018-03-21T01:33:09.625Z,83.40
2018-03-21T01:34:11.140Z,83.50
2018-03-21T01:35:09.912Z,83.50
2018-03-21T01:36:09.865Z,83.50
2018-03-21T01:37:06.638Z,83.40
2018-03-21T01:38:13.524Z,83.30
2018-03-21T01:39:08.425Z,83.30
2018-03-21T01:40:05.933Z,83.30
2018-03-21T01:41:05.883Z,83.30
2018-03-21T01:42:06.134Z,83.30
2018-03-21T01:43:06.145Z,83.30
2018-03-21T01:44:05.900Z,83.30
2018-03-21T01:45:05.949Z,83.30
2018-03-21T01:46:05.953Z,83.30
2018-03-21T01:47:09.038Z,83.30
2018-03-21T01:48:05.773Z,83.30
2018-03-21T01:49:06.925Z,83.20
2018-03-21T01:50:11.629Z,83.10
2018-03-21T01:51:06.061Z,82.90
2018-03-21T01:52:09.222Z,82.80
2018-03-21T01:53:05.965Z,82.80
2018-03-21T01:54:06.463Z,82.80
2018-03-21T01:55:06.159Z,82.90
2018-03-21T01:56:09.255Z,82.90
2018-03-21T01:57:05.861Z,82.90
2018-03-21T01:58:05.974Z,83.00
2018-03-21T01:59:06.404Z,82.90
2018-03-21T02:00:06.768Z,82.90
2018-03-21T02:01:09.718Z,82.80
2018-03-21T02:02:06.438Z,82.80
2018-03-21T02:03:11.450Z,82.80
2018-03-21T02:04:08.474Z,82.70
2018-03-21T02:05:05.835Z,82.70
2018-03-21T02:06:06.437Z,82.80
2018-03-21T02:07:09.922Z,82.80
2018-03-21T02:08:11.583Z,82.80
2018-03-21T02:09:06.012Z,82.80
2018-03-21T02:10:06.597Z,82.80
2018-03-21T02:11:09.385Z,82.80
2018-03-21T02:12:10.809Z,82.80
2018-03-21T02:13:10.991Z,82.80
2018-03-21T02:14:14.750Z,82.90
2018-03-21T02:15:11.196Z,83.00
2018-03-21T02:16:08.773Z,83.00
2018-03-21T02:17:06.347Z,83.00
2018-03-21T02:18:10.825Z,83.10
2018-03-21T02:19:05.842Z,83.00
2018-03-21T02:20:06.157Z,83.10
2018-03-21T02:21:05.925Z,83.10
2018-03-21T02:22:10.587Z,83.00
2018-03-21T02:23:08.466Z,82.80
2018-03-21T02:24:16.021Z,82.70
2018-03-21T02:25:08.026Z,82.70
2018-03-21T02:26:06.050Z,82.70
2018-03-21T02:27:11.138Z,82.70
2018-03-21T02:28:05.780Z,82.70
2018-03-21T02:29:06.382Z,82.60
2018-03-21T02:30:06.285Z,82.60
2018-03-21T02:31:06.490Z,82.50
2018-03-21T02:32:06.653Z,82.50
2018-03-21T02:33:09.055Z,82.60
2018-03-21T02:34:09.699Z,82.60
2018-03-21T02:35:06.472Z,82.60
2018-03-21T02:36:10.411Z,82.70
2018-03-21T02:37:05.876Z,82.70
2018-03-21T02:38:09.678Z,82.70
2018-03-21T02:39:11.356Z,82.70
2018-03-21T02:40:06.062Z,82.70
2018-03-21T02:41:05.789Z,82.70
2018-03-21T02:42:05.685Z,82.60
2018-03-21T02:43:06.364Z,82.50
2018-03-21T02:44:06.620Z,82.50
2018-03-21T02:45:06.616Z,82.50
2018-03-21T02:46:05.917Z,82.50
2018-03-21T02:47:10.715Z,82.50
2018-03-21T02:48:06.209Z,82.40
2018-03-21T02:49:06.138Z,82.50
2018-03-21T02:50:05.809Z,82.40
2018-03-21T02:51:10.188Z,82.30
2018-03-21T02:52:05.880Z,82.30
2018-03-21T02:53:05.937Z,82.30
2018-03-21T02:54:06.243Z,82.20
2018-03-21T02:55:09.976Z,82.10
2018-03-21T02:56:05.590Z,81.90
2018-03-21T02:57:06.476Z,81.90
2018-03-21T02:58:10.663Z,81.90
2018-03-21T02:59:05.986Z,82.00
2018-03-21T03:00:09.023Z,81.90
2018-03-21T03:01:08.062Z,81.90
2018-03-21T03:02:05.464Z,81.90
2018-03-21T03:03:09.604Z,82.10
2018-03-21T03:04:09.607Z,81.90
2018-03-21T03:05:06.272Z,81.90
2018-03-21T03:06:06.268Z,81.80
2018-03-21T03:07:09.006Z,81.80
2018-03-21T03:08:05.566Z,81.90
2018-03-21T03:09:09.425Z,81.90
2018-03-21T03:10:06.046Z,81.80
2018-03-21T03:11:05.711Z,81.70
2018-03-21T03:12:05.957Z,81.40
2018-03-21T03:13:10.774Z,81.20
2018-03-21T03:14:06.235Z,81.30
2018-03-21T03:15:10.869Z,81.10
2018-03-21T03:16:09.628Z,81.20
2018-03-21T03:17:08.656Z,81.20
2018-03-21T03:18:08.921Z,81.30
2018-03-21T03:19:06.577Z,81.30
2018-03-21T03:20:07.042Z,81.40
2018-03-21T03:21:05.602Z,81.40
2018-03-21T03:22:06.129Z,81.40
2018-03-21T03:23:09.873Z,81.10
2018-03-21T03:24:08.816Z,81.10
2018-03-21T03:25:05.887Z,81.10
2018-03-21T03:26:05.951Z,81.00
2018-03-21T03:27:05.586Z,81.00
2018-03-21T03:28:09.714Z,80.60
2018-03-21T03:29:13.824Z,80.70
2018-03-21T03:30:10.592Z,80.80
2018-03-21T03:31:11.058Z,80.80
2018-03-21T03:32:06.510Z,80.80
2018-03-21T03:33:16.390Z,81.00
2018-03-21T03:34:06.069Z,81.00
2018-03-21T03:35:06.403Z,81.00
2018-03-21T03:36:11.098Z,81.00
2018-03-21T03:37:06.675Z,80.90
2018-03-21T03:38:06.612Z,81.10
2018-03-21T03:39:09.377Z,81.00
2018-03-21T03:40:05.898Z,81.00
2018-03-21T03:41:06.346Z,81.00
2018-03-21T03:42:08.896Z,80.90
2018-03-21T03:43:06.473Z,80.90
2018-03-21T03:44:08.446Z,81.00
2018-03-21T03:45:06.847Z,80.90
2018-03-21T03:46:06.384Z,80.90
2018-03-21T03:47:08.640Z,80.80
2018-03-21T03:48:11.235Z,80.80
2018-03-21T03:49:05.706Z,80.80
2018-03-21T03:50:08.849Z,80.80
2018-03-21T03:51:12.301Z,80.80
2018-03-21T03:52:05.718Z,80.80
2018-03-21T03:53:05.723Z,80.80
2018-03-21T03:54:08.903Z,80.70
2018-03-21T03:55:06.501Z,80.70
2018-03-21T03:56:06.257Z,80.90
2018-03-21T03:57:06.049Z,80.70
2018-03-21T03:58:05.864Z,80.70
2018-03-21T03:59:19.019Z,80.60
2018-03-21T04:00:08.126Z,80.60
2018-03-21T04:01:05.814Z,80.60
2018-03-21T04:02:10.115Z,80.70
2018-03-21T04:03:08.486Z,80.70
2018-03-21T04:04:13.584Z,80.70
2018-03-21T04:05:13.018Z,80.60
2018-03-21T04:06:05.506Z,80.70
2018-03-21T04:07:06.001Z,80.60
2018-03-21T04:08:06.463Z,80.60
2018-03-21T04:09:08.763Z,80.50
2018-03-21T04:10:08.786Z,80.50
2018-03-21T04:11:11.289Z,80.50
2018-03-21T04:12:08.950Z,80.50
2018-03-21T04:13:05.676Z,80.50
2018-03-21T04:14:06.408Z,80.50
2018-03-21T04:15:06.135Z,80.50
2018-03-21T04:16:08.514Z,80.30
2018-03-21T04:17:08.474Z,80.30
2018-03-21T04:18:05.937Z,80.40
2018-03-21T04:19:08.207Z,80.30
2018-03-21T04:20:06.269Z,80.30
2018-03-21T04:21:05.897Z,80.40
2018-03-21T04:22:10.948Z,80.40
2018-03-21T04:23:15.541Z,80.40
2018-03-21T04:24:08.082Z,80.40
2018-03-21T04:25:05.748Z,80.40
2018-03-21T04:26:05.599Z,80.40
2018-03-21T04:27:05.944Z,80.40
2018-03-21T04:28:05.464Z,80.40
2018-03-21T04:29:06.462Z,80.40
2018-03-21T04:30:06.000Z,80.40
2018-03-21T04:31:05.780Z,80.40
2018-03-21T04:32:10.971Z,80.40
2018-03-21T04:33:06.063Z,80.40
2018-03-21T04:34:10.808Z,80.40
2018-03-21T04:35:06.062Z,80.40
2018-03-21T04:36:06.039Z,80.40
2018-03-21T04:37:09.177Z,80.30
2018-03-21T04:38:10.660Z,80.40
2018-03-21T04:39:05.854Z,80.30
2018-03-21T04:40:08.229Z,80.10
2018-03-21T04:41:05.772Z,80.00
2018-03-21T04:42:12.209Z,79.90
2018-03-21T04:43:08.252Z,79.90
2018-03-21T04:44:05.702Z,79.90
2018-03-21T04:45:05.883Z,79.90
2018-03-21T04:46:06.273Z,79.80
2018-03-21T04:47:10.940Z,79.80
2018-03-21T04:48:06.441Z,79.80
2018-03-21T04:49:09.091Z,79.90
2018-03-21T04:50:05.567Z,80.00
2018-03-21T04:51:05.751Z,80.00
2018-03-21T04:52:05.578Z,80.00
2018-03-21T04:53:10.952Z,79.90
2018-03-21T04:54:06.652Z,79.80
2018-03-21T04:55:10.959Z,79.40
2018-03-21T04:56:10.895Z,79.30
2018-03-21T04:57:06.334Z,79.20
2018-03-21T04:58:06.483Z,79.10
2018-03-21T04:59:05.498Z,78.90
2018-03-21T05:00:06.180Z,79.00
2018-03-21T05:01:06.049Z,79.10
2018-03-21T05:02:13.807Z,79.40
2018-03-21T05:03:06.447Z,79.40
2018-03-21T05:04:08.720Z,79.60
2018-03-21T05:05:08.660Z,79.70
2018-03-21T05:06:06.114Z,79.70
2018-03-21T05:07:09.236Z,79.80
2018-03-21T05:08:05.959Z,79.80
2018-03-21T05:09:06.204Z,79.80
2018-03-21T05:10:05.890Z,79.70
2018-03-21T05:11:08.353Z,79.60
2018-03-21T05:12:05.726Z,79.60
2018-03-21T05:13:05.732Z,79.60
2018-03-21T05:14:06.354Z,79.60
2018-03-21T05:15:11.349Z,79.80
2018-03-21T05:16:10.760Z,79.90
2018-03-21T05:17:08.829Z,80.00
2018-03-21T05:18:06.401Z,80.00
2018-03-21T05:19:06.044Z,80.00
2018-03-21T05:20:10.869Z,80.10
2018-03-21T05:21:06.438Z,80.10
2018-03-21T05:22:06.321Z,80.20
2018-03-21T05:23:06.484Z,80.30
2018-03-21T05:24:06.255Z,80.30
2018-03-21T05:25:08.884Z,80.40
2018-03-21T05:26:11.496Z,80.40
2018-03-21T05:27:06.277Z,80.50
2018-03-21T05:28:08.190Z,80.60
2018-03-21T05:29:05.638Z,80.70
2018-03-21T05:30:11.410Z,80.80
2018-03-21T05:31:05.904Z,81.00
2018-03-21T05:32:10.720Z,81.20
2018-03-21T05:33:05.712Z,81.20
2018-03-21T05:34:06.031Z,81.30
2018-03-21T05:35:08.539Z,81.50
2018-03-21T05:36:06.112Z,81.50
2018-03-21T05:37:08.497Z,81.70
2018-03-21T05:38:06.252Z,81.70
2018-03-21T05:39:05.812Z,81.80
2018-03-21T05:40:05.648Z,81.80
2018-03-21T05:41:06.388Z,81.80
2018-03-21T05:42:11.249Z,81.90
2018-03-21T05:43:05.896Z,81.90
2018-03-21T05:44:10.545Z,82.00
2018-03-21T05:45:09.545Z,82.20
2018-03-21T05:46:06.475Z,82.20
2018-03-21T05:47:10.969Z,82.20
2018-03-21T05:48:06.437Z,82.30
2018-03-21T05:49:05.537Z,82.30
2018-03-21T05:50:05.626Z,82.40
2018-03-21T05:51:06.270Z,82.50
2018-03-21T05:52:08.830Z,82.60
2018-03-21T05:53:11.376Z,82.90
2018-03-21T05:54:06.069Z,82.90
2018-03-21T05:55:06.025Z,82.90
2018-03-21T05:56:06.486Z,83.10
2018-03-21T05:57:10.454Z,83.10
2018-03-21T05:58:10.919Z,83.30
2018-03-21T05:59:08.379Z,83.30
2018-03-21T06:00:05.906Z,83.30
2018-03-21T06:01:05.408Z,83.30
2018-03-21T06:02:13.634Z,83.50
2018-03-21T06:03:06.188Z,83.40
2018-03-21T06:04:07.083Z,83.60
2018-03-21T06:05:10.666Z,83.70
2018-03-21T06:06:06.252Z,83.70
2018-03-21T06:07:09.884Z,83.70
2018-03-21T06:08:06.332Z,83.70
2018-03-21T06:09:08.243Z,83.90
2018-03-21T06:10:08.274Z,83.90
2018-03-21T06:11:05.659Z,83.90
2018-03-21T06:12:06.293Z,83.90
2018-03-21T06:13:06.059Z,84.00
2018-03-21T06:14:05.744Z,84.20
2018-03-21T06:15:05.753Z,84.20
2018-03-21T06:16:09.087Z,84.30
2018-03-21T06:17:05.524Z,84.30
2018-03-21T06:18:16.199Z,84.30
2018-03-21T06:19:05.838Z,84.40
2018-03-21T06:20:08.728Z,84.20
2018-03-21T06:21:11.241Z,84.40
2018-03-21T06:22:10.620Z,84.40
2018-03-21T06:23:06.126Z,84.40
2018-03-21T06:24:06.196Z,84.40
2018-03-21T06:25:05.846Z,84.40
2018-03-21T06:26:05.787Z,84.30
2018-03-21T06:27:06.768Z,84.50
2018-03-21T06:28:06.575Z,84.60
2018-03-21T06:29:09.558Z,84.70
2018-03-21T06:30:06.085Z,84.60
2018-03-21T06:31:05.663Z,84.70
2018-03-21T06:32:08.797Z,84.40
2018-03-21T06:33:08.838Z,84.40
2018-03-21T06:34:09.625Z,84.40
2018-03-21T06:35:12.126Z,84.30
2018-03-21T06:36:11.244Z,84.50
2018-03-21T06:37:05.753Z,84.50
2018-03-21T06:38:11.217Z,84.40
2018-03-21T06:39:08.957Z,84.20
2018-03-21T06:40:05.580Z,84.20
2018-03-21T06:41:10.517Z,84.20
2018-03-21T06:42:08.315Z,84.40
2018-03-21T06:43:06.046Z,84.40
2018-03-21T06:44:08.372Z,84.50
2018-03-21T06:45:05.799Z,84.50
2018-03-21T06:46:05.554Z,84.40
2018-03-21T06:47:09.511Z,84.40
2018-03-21T06:48:06.205Z,84.40
2018-03-21T06:49:06.273Z,84.40
2018-03-21T06:50:06.387Z,84.20
2018-03-21T06:51:06.274Z,84.10
2018-03-21T06:52:05.759Z,83.90
2018-03-21T06:53:10.799Z,83.70
2018-03-21T06:54:08.112Z,82.70
2018-03-21T06:55:06.226Z,82.70
2018-03-21T06:56:08.954Z,82.10
2018-03-21T06:57:11.482Z,81.80
2018-03-21T06:58:06.307Z,81.80
2018-03-21T06:59:11.167Z,81.00
2018-03-21T07:00:05.821Z,80.90
2018-03-21T07:01:08.069Z,80.70
2018-03-21T07:02:11.120Z,80.70
2018-03-21T07:03:09.414Z,80.00
2018-03-21T07:04:06.490Z,80.00
2018-03-21T07:05:11.135Z,79.30
2018-03-21T07:06:08.679Z,78.90
2018-03-21T07:07:05.939Z,79.00
2018-03-21T07:08:05.735Z,78.60
2018-03-21T07:09:06.254Z,78.30
2018-03-21T07:10:06.255Z,78.10
2018-03-21T07:11:06.138Z,78.00
2018-03-21T07:12:05.792Z,77.70
2018-03-21T07:13:05.851Z,77.60
2018-03-21T07:14:06.158Z,77.40
2018-03-21T07:15:10.794Z,77.70
2018-03-21T07:16:11.245Z,77.30
2018-03-21T07:17:11.471Z,77.30
2018-03-21T07:18:09.709Z,76.70
2018-03-21T07:19:05.986Z,76.70
2018-03-21T07:20:05.874Z,76.30
2018-03-21T07:21:06.517Z,75.70
2018-03-21T07:22:06.041Z,74.50
2018-03-21T07:23:08.972Z,74.00
2018-03-21T07:24:09.094Z,74.20
2018-03-21T07:25:10.616Z,74.10
2018-03-21T07:26:06.072Z,61.10
2018-03-21T07:27:05.937Z,73.60
2018-03-21T07:28:06.385Z,73.70
2018-03-21T07:29:11.011Z,73.00
2018-03-21T07:30:05.446Z,73.00
2018-03-21T07:31:06.205Z,73.00
2018-03-21T07:32:05.664Z,72.70
2018-03-21T07:33:09.506Z,71.80
2018-03-21T07:34:08.579Z,71.70
2018-03-21T07:35:11.147Z,71.70
2018-03-21T07:36:09.737Z,71.60
2018-03-21T07:37:06.301Z,71.60
2018-03-21T07:38:06.232Z,71.50
2018-03-21T07:39:06.065Z,71.40
2018-03-21T07:40:08.099Z,71.20
2018-03-21T07:41:06.216Z,71.20
2018-03-21T07:42:06.928Z,70.70
2018-03-21T07:43:05.837Z,70.10
2018-03-21T07:44:10.535Z,70.10
2018-03-21T07:45:08.376Z,70.20
2018-03-21T07:46:06.040Z,70.20
2018-03-21T07:47:05.980Z,69.80
2018-03-21T07:48:06.231Z,69.60
2018-03-21T07:49:14.272Z,68.70
2018-03-21T07:50:05.643Z,68.70
2018-03-21T07:51:11.258Z,68.50
2018-03-21T07:52:06.490Z,68.40
2018-03-21T07:53:05.966Z,68.40
2018-03-21T07:54:07.047Z,67.80
2018-03-21T07:55:05.558Z,67.50
2018-03-21T07:56:08.993Z,67.30
2018-03-21T07:57:06.600Z,67.30
2018-03-21T07:58:05.985Z,67.00
2018-03-21T07:59:10.916Z,66.70
2018-03-21T08:00:06.523Z,66.30
2018-03-21T08:01:06.121Z,66.70
2018-03-21T08:02:08.414Z,66.80
2018-03-21T08:03:05.565Z,66.80
2018-03-21T08:04:11.267Z,65.70
2018-03-21T08:05:05.723Z,65.60
2018-03-21T08:06:06.224Z,65.40
2018-03-21T08:07:11.015Z,65.20
2018-03-21T08:08:05.527Z,65.30
2018-03-21T08:09:11.353Z,65.00
2018-03-21T08:10:05.531Z,64.80
2018-03-21T08:11:06.125Z,64.60
2018-03-21T08:12:11.464Z,64.50
2018-03-21T08:13:07.079Z,64.50
2018-03-21T08:14:05.909Z,64.40
2018-03-21T08:15:05.797Z,64.00
2018-03-21T08:16:11.313Z,62.90
2018-03-21T08:17:08.136Z,62.70
2018-03-21T08:18:06.445Z,62.70
2018-03-21T08:19:05.667Z,62.80
2018-03-21T08:20:10.660Z,62.00
2018-03-21T08:21:11.140Z,62.00
2018-03-21T08:22:05.549Z,61.60
2018-03-21T08:23:05.650Z,61.60
2018-03-21T08:24:10.590Z,61.40
2018-03-21T08:25:06.046Z,61.60
2018-03-21T08:26:05.646Z,60.90
2018-03-21T08:27:07.065Z,60.80
2018-03-21T08:28:06.010Z,60.80
2018-03-21T08:29:08.465Z,60.10
2018-03-21T08:30:05.646Z,60.10
2018-03-21T08:31:05.786Z,59.90
2018-03-21T08:32:10.794Z,59.70
2018-03-21T08:33:11.016Z,59.60
2018-03-21T08:34:06.355Z,59.60
2018-03-21T08:35:06.183Z,59.90
2018-03-21T08:36:06.244Z,59.80
2018-03-21T08:37:06.360Z,59.10
2018-03-21T08:38:06.057Z,58.70
2018-03-21T08:39:08.875Z,7.70
2018-03-21T08:40:06.344Z,58.90
2018-03-21T08:41:06.090Z,58.40
2018-03-21T08:42:10.790Z,58.10
2018-03-21T08:43:08.762Z,57.70
2018-03-21T08:44:05.846Z,57.60
2018-03-21T08:45:06.587Z,57.30
2018-03-21T08:46:06.135Z,57.20
2018-03-21T08:47:09.298Z,56.30
2018-03-21T08:48:06.029Z,56.10
2018-03-21T08:49:06.040Z,55.90
2018-03-21T08:50:08.488Z,55.50
2018-03-21T08:51:08.903Z,55.60
2018-03-21T08:52:09.888Z,55.60
2018-03-21T08:53:10.090Z,56.00
2018-03-21T08:54:10.633Z,55.60
2018-03-21T08:55:05.992Z,55.60
2018-03-21T08:56:13.488Z,55.80
2018-03-21T08:57:09.351Z,55.40
2018-03-21T08:58:06.007Z,55.30
2018-03-21T08:59:08.149Z,55.60
2018-03-21T09:00:05.711Z,55.60
2018-03-21T09:01:12.415Z,55.60
2018-03-21T09:02:06.126Z,55.60
2018-03-21T09:03:05.653Z,55.40
2018-03-21T09:04:05.779Z,55.00
2018-03-21T09:05:10.974Z,55.50
2018-03-21T09:06:06.127Z,55.60
2018-03-21T09:07:08.672Z,54.90
2018-03-21T09:08:05.431Z,54.80
2018-03-21T09:09:06.286Z,54.90
2018-03-21T09:10:06.168Z,55.20
2018-03-21T09:11:06.010Z,55.10
2018-03-21T09:12:05.851Z,54.40
2018-03-21T09:13:09.011Z,54.70
2018-03-21T09:14:05.499Z,54.70
2018-03-21T09:15:08.636Z,53.90
2018-03-21T09:16:05.792Z,54.00
2018-03-21T09:17:16.530Z,54.00
2018-03-21T09:18:06.131Z,54.00
2018-03-21T09:19:06.076Z,54.00
2018-03-21T09:20:06.145Z,54.20
2018-03-21T09:21:05.529Z,54.30
2018-03-21T09:22:06.372Z,54.40
2018-03-21T09:23:11.038Z,53.90
2018-03-21T09:24:09.492Z,53.80
2018-03-21T09:25:11.352Z,53.80
2018-03-21T09:26:06.007Z,53.80
2018-03-21T09:27:08.869Z,53.40
2018-03-21T09:28:09.642Z,53.10
2018-03-21T09:29:06.196Z,53.20
2018-03-21T09:30:08.545Z,52.90
2018-03-21T09:31:05.986Z,52.90
2018-03-21T09:32:10.890Z,52.80
2018-03-21T09:33:06.496Z,52.90
2018-03-21T09:34:06.409Z,52.70
2018-03-21T09:35:05.720Z,52.50
2018-03-21T09:36:05.721Z,52.50
2018-03-21T09:37:09.299Z,52.70
2018-03-21T09:38:06.051Z,52.70
2018-03-21T09:39:08.450Z,52.70
2018-03-21T09:40:06.162Z,52.70
2018-03-21T09:41:05.746Z,52.60
2018-03-21T09:42:07.234Z,52.60
2018-03-21T09:43:10.821Z,52.70
2018-03-21T09:44:06.200Z,52.80
2018-03-21T09:45:08.368Z,52.50
2018-03-21T09:46:05.968Z,52.50
2018-03-21T09:47:05.687Z,52.90
2018-03-21T09:48:06.536Z,52.50
2018-03-21T09:49:08.958Z,52.70
2018-03-21T09:50:09.387Z,52.40
2018-03-21T09:51:06.141Z,52.30
2018-03-21T09:52:11.288Z,52.20
2018-03-21T09:53:06.461Z,52.00
2018-03-21T09:54:08.903Z,52.30
2018-03-21T09:55:07.499Z,52.30
2018-03-21T09:56:05.901Z,51.90
2018-03-21T09:57:09.286Z,51.30
2018-03-21T09:58:05.953Z,51.30
2018-03-21T09:59:05.611Z,51.20
2018-03-21T10:00:05.944Z,50.80
2018-03-21T10:01:05.582Z,51.10
2018-03-21T10:02:10.746Z,51.20
2018-03-21T10:03:10.908Z,50.60
2018-03-21T10:04:06.363Z,50.20
2018-03-21T10:05:09.338Z,50.80
2018-03-21T10:06:10.169Z,50.90
2018-03-21T10:07:05.612Z,50.90
2018-03-21T10:08:06.292Z,51.00
2018-03-21T10:09:05.981Z,50.70
2018-03-21T10:10:06.346Z,50.70
2018-03-21T10:11:11.122Z,50.70
2018-03-21T10:12:08.871Z,50.90
2018-03-21T10:13:06.305Z,50.90
2018-03-21T10:14:10.693Z,50.80
2018-03-21T10:15:06.018Z,50.80
2018-03-21T10:16:06.077Z,50.20
2018-03-21T10:17:08.115Z,50.30
2018-03-21T10:18:13.809Z,49.50
2018-03-21T10:19:06.355Z,49.50
2018-03-21T10:20:05.643Z,49.60
2018-03-21T10:21:11.247Z,48.50
2018-03-21T10:22:05.736Z,48.60
2018-03-21T10:23:10.574Z,48.40
2018-03-21T10:24:05.775Z,48.10
2018-03-21T10:25:09.488Z,48.50
2018-03-21T10:26:06.209Z,48.50
2018-03-21T10:27:06.179Z,48.80
2018-03-21T10:28:06.368Z,48.90
2018-03-21T10:29:08.621Z,48.50
2018-03-21T10:30:06.175Z,48.60
2018-03-21T10:31:05.988Z,48.20
2018-03-21T10:32:06.673Z,48.40
2018-03-21T10:33:09.213Z,48.70
2018-03-21T10:34:05.656Z,48.80
2018-03-21T10:35:08.927Z,48.50
2018-03-21T10:36:08.951Z,48.60
2018-03-21T10:37:11.391Z,48.50
2018-03-21T10:38:06.477Z,48.50
2018-03-21T10:39:08.926Z,48.20
2018-03-21T10:40:11.523Z,48.00
2018-03-21T10:41:05.979Z,48.00
2018-03-21T10:42:10.850Z,47.80
2018-03-21T10:43:15.509Z,47.40
2018-03-21T10:44:06.185Z,47.50
2018-03-21T10:45:11.063Z,47.70
2018-03-21T10:46:05.639Z,47.70
2018-03-21T10:47:06.160Z,47.60
2018-03-21T10:48:05.936Z,47.10
2018-03-21T10:49:06.065Z,47.10
2018-03-21T10:50:09.011Z,46.70
2018-03-21T10:51:05.448Z,46.70
2018-03-21T10:52:05.602Z,46.90
2018-03-21T10:53:06.498Z,47.10
2018-03-21T10:54:10.966Z,46.40
2018-03-21T10:55:09.667Z,46.30
2018-03-21T10:56:06.165Z,46.20
2018-03-21T10:57:11.179Z,46.80
2018-03-21T10:58:06.565Z,46.80
2018-03-21T10:59:09.087Z,47.00
2018-03-21T11:00:08.214Z,47.00
2018-03-21T11:01:05.829Z,47.10
2018-03-21T11:02:06.116Z,47.00
2018-03-21T11:03:08.218Z,47.10
2018-03-21T11:04:10.727Z,47.30
2018-03-21T11:05:06.474Z,47.30
2018-03-21T11:06:05.909Z,47.30
2018-03-21T11:07:06.042Z,47.20
2018-03-21T11:08:05.683Z,47.10
2018-03-21T11:09:06.247Z,46.50
2018-03-21T11:10:06.153Z,45.60
2018-03-21T11:11:08.285Z,46.40
2018-03-21T11:12:05.690Z,46.40
2018-03-21T11:13:05.582Z,46.40
2018-03-21T11:14:08.961Z,45.10
2018-03-21T11:15:06.562Z,45.10
2018-03-21T11:16:06.314Z,45.20
2018-03-21T11:17:05.652Z,45.60
2018-03-21T11:18:05.628Z,45.90
2018-03-21T11:19:08.517Z,45.90
2018-03-21T11:20:08.636Z,45.60
2018-03-21T11:21:09.048Z,46.00
2018-03-21T11:22:08.125Z,44.90
2018-03-21T11:23:08.407Z,44.00
2018-03-21T11:24:06.155Z,44.00
2018-03-21T11:25:09.036Z,45.50
2018-03-21T11:26:07.968Z,45.80
2018-03-21T11:27:06.597Z,45.80
2018-03-21T11:28:10.673Z,45.90
2018-03-21T11:29:05.806Z,45.60
2018-03-21T11:30:06.526Z,45.30
2018-03-21T11:31:11.215Z,45.20
2018-03-21T11:32:08.863Z,44.60
2018-03-21T11:33:06.345Z,44.60
2018-03-21T11:34:06.302Z,44.10
2018-03-21T11:35:06.436Z,44.70
2018-03-21T11:36:06.164Z,45.20
2018-03-21T11:37:06.180Z,43.90
2018-03-21T11:38:08.335Z,42.80
2018-03-21T11:39:09.421Z,42.90
2018-03-21T11:40:05.733Z,43.00
2018-03-21T11:41:08.854Z,43.60
2018-03-21T11:42:06.359Z,43.70
2018-03-21T11:43:21.382Z,42.80
2018-03-21T11:44:08.485Z,42.00
2018-03-21T11:45:05.631Z,41.90
2018-03-21T11:46:06.782Z,41.70
2018-03-21T11:47:05.710Z,41.50
2018-03-21T11:48:09.727Z,42.80
2018-03-21T11:49:06.533Z,42.80
2018-03-21T11:50:08.675Z,43.20
2018-03-21T11:51:08.875Z,43.20
2018-03-21T11:52:06.492Z,43.20
2018-03-21T11:53:06.229Z,42.90
2018-03-21T11:54:08.466Z,43.30
2018-03-21T11:55:11.006Z,43.40
2018-03-21T11:56:09.668Z,43.70
2018-03-21T11:57:08.729Z,44.00
2018-03-21T11:58:06.494Z,44.00
2018-03-21T11:59:08.836Z,41.40
2018-03-21T12:00:08.794Z,41.50
2018-03-21T12:01:06.181Z,41.60
2018-03-21T12:02:09.239Z,42.70
2018-03-21T12:03:08.266Z,42.60
2018-03-21T12:04:05.694Z,42.60
2018-03-21T12:05:09.039Z,42.60
2018-03-21T12:06:08.296Z,42.60
2018-03-21T12:07:11.056Z,42.50
2018-03-21T12:08:09.853Z,42.30
2018-03-21T12:09:09.830Z,42.30
2018-03-21T12:10:06.342Z,42.30
2018-03-21T12:11:09.158Z,42.30
2018-03-21T12:12:05.674Z,42.30
2018-03-21T12:13:06.304Z,42.00
2018-03-21T12:14:06.473Z,41.80
2018-03-21T12:15:16.700Z,42.20
2018-03-21T12:16:09.131Z,41.80
2018-03-21T12:17:10.650Z,41.80
2018-03-21T12:18:10.811Z,42.00
2018-03-21T12:19:11.094Z,41.20
2018-03-21T12:20:06.442Z,41.20
2018-03-21T12:21:09.028Z,40.70
2018-03-21T12:22:10.109Z,41.00
2018-03-21T12:23:06.033Z,41.00
2018-03-21T12:24:06.472Z,40.70
2018-03-21T12:25:09.370Z,39.80
2018-03-21T12:26:10.996Z,39.70
2018-03-21T12:27:06.619Z,39.70
2018-03-21T12:28:05.467Z,39.80
2018-03-21T12:29:06.238Z,39.80
2018-03-21T12:30:08.337Z,38.90
2018-03-21T12:31:08.318Z,39.10
2018-03-21T12:32:05.879Z,39.10
2018-03-21T12:33:09.118Z,38.70
2018-03-21T12:34:08.801Z,39.00
2018-03-21T12:35:06.594Z,39.10
2018-03-21T12:36:09.784Z,38.50
2018-03-21T12:37:06.527Z,38.60
2018-03-21T12:38:06.475Z,37.90
2018-03-21T12:39:11.032Z,37.70
2018-03-21T12:40:06.341Z,37.60
2018-03-21T12:41:11.344Z,38.20
2018-03-21T12:42:05.728Z,38.50
2018-03-21T12:43:05.496Z,38.50
2018-03-21T12:44:10.758Z,38.80
2018-03-21T12:45:06.059Z,38.90
2018-03-21T12:46:11.137Z,26.20
2018-03-21T12:47:06.069Z,38.90
2018-03-21T12:48:06.187Z,38.70
2018-03-21T12:49:06.093Z,38.40
2018-03-21T12:50:08.355Z,38.60
2018-03-21T12:51:05.824Z,38.60
2018-03-21T12:52:05.722Z,38.30